createdAt,value
2018-12-27T00:00:37.293Z,-1.80
2018-12-27T00:03:07.046Z,-1.90
2018-12-27T00:05:36.899Z,-2.00
2018-12-27T00:08:06.750Z,-2.00
2018-12-27T00:10:37.938Z,-2.00
2018-12-27T00:13:07.909Z,-1.90
2018-12-27T00:15:37.658Z,-1.90
2018-12-27T00:18:07.574Z,-1.80
2018-12-27T00:20:37.416Z,-1.80
2018-12-27T00:23:07.231Z,-1.90
2018-12-27T00:25:37.089Z,-1.80
2018-12-27T00:28:06.971Z,-1.80
2018-12-27T00:30:37.056Z,-1.70
2018-12-27T00:33:07.264Z,-1.80
2018-12-27T00:35:37.407Z,-2.00
2018-12-27T00:38:07.562Z,-2.10
2018-12-27T00:40:37.666Z,-2.00
2018-12-27T00:43:07.907Z,-2.10
2018-12-27T00:45:38.057Z,-2.00
2018-12-27T00:48:08.182Z,-2.00
2018-12-27T00:50:38.349Z,-2.00
2018-12-27T00:53:08.444Z,-1.90
2018-12-27T00:55:38.626Z,-1.90
2018-12-27T00:58:08.786Z,-2.00
2018-12-27T01:00:38.917Z,-1.90
2018-12-27T01:03:11.210Z,-2.10
2018-12-27T01:05:40.913Z,-1.90
2018-12-27T01:08:11.090Z,-1.90
2018-12-27T01:10:41.185Z,-2.00
2018-12-27T01:13:11.369Z,-2.00
2018-12-27T01:15:41.551Z,-2.10
2018-12-27T01:18:11.730Z,-2.10
2018-12-27T01:20:41.896Z,-2.20
2018-12-27T01:23:12.065Z,-2.10
2018-12-27T01:25:42.153Z,-2.10
2018-12-27T01:28:12.293Z,-2.30
2018-12-27T01:30:42.429Z,-2.10
2018-12-27T01:33:18.734Z,-2.00
2018-12-27T01:35:44.476Z,-2.00
2018-12-27T01:38:14.607Z,-2.10
2018-12-27T01:40:44.778Z,-2.00
2018-12-27T01:43:16.192Z,-1.90
2018-12-27T01:45:46.345Z,-1.90
2018-12-27T01:48:16.445Z,-2.10
2018-12-27T01:50:46.628Z,-2.10
2018-12-27T01:53:16.725Z,-2.00
2018-12-27T01:55:46.873Z,-1.90
2018-12-27T01:58:17.086Z,-2.00
2018-12-27T02:00:47.276Z,-1.90
2018-12-27T02:03:17.376Z,-1.90
2018-12-27T02:05:47.528Z,-1.80
2018-12-27T02:08:17.680Z,-1.80
2018-12-27T02:10:47.763Z,-1.80
2018-12-27T02:13:17.913Z,-1.80
2018-12-27T02:15:48.030Z,-1.80
2018-12-27T02:18:18.197Z,-1.90
2018-12-27T02:20:48.307Z,-2.10
2018-12-27T02:23:18.483Z,-2.00
2018-12-27T02:25:48.603Z,-2.10
2018-12-27T02:28:18.786Z,-1.90
2018-12-27T02:30:48.881Z,-2.00
2018-12-27T02:33:19.070Z,-2.00
2018-12-27T02:35:49.270Z,-2.10
2018-12-27T02:38:19.434Z,-2.00
2018-12-27T02:40:49.753Z,-2.00
2018-12-27T02:43:19.858Z,-2.10
2018-12-27T02:45:50.053Z,-1.90
2018-12-27T02:48:20.154Z,-1.90
2018-12-27T02:50:50.327Z,-1.90
2018-12-27T02:53:20.430Z,-1.80
2018-12-27T02:55:51.812Z,-1.80
2018-12-27T02:58:21.999Z,-1.80
2018-12-27T03:00:52.153Z,-1.90
2018-12-27T03:03:22.308Z,-1.80
2018-12-27T03:05:52.400Z,-1.80
2018-12-27T03:08:22.660Z,-1.90
2018-12-27T03:10:52.865Z,-2.00
2018-12-27T03:13:23.084Z,-1.90
2018-12-27T03:15:54.368Z,-2.00
2018-12-27T03:18:24.472Z,-2.30
2018-12-27T03:20:54.641Z,-2.20
2018-12-27T03:23:24.722Z,-2.20
2018-12-27T03:25:54.974Z,-2.10
2018-12-27T03:28:25.070Z,-2.20
2018-12-27T03:30:55.252Z,-2.40
2018-12-27T03:33:25.434Z,-2.20
2018-12-27T03:35:55.601Z,-2.10
2018-12-27T03:38:25.797Z,-2.30
2018-12-27T03:40:55.947Z,-2.40
2018-12-27T03:43:26.101Z,-2.20
2018-12-27T03:45:56.303Z,-2.20
2018-12-27T03:48:26.398Z,-2.20
2018-12-27T03:50:56.594Z,-2.40
2018-12-27T03:53:26.706Z,-2.40
2018-12-27T03:55:56.934Z,-2.30
2018-12-27T03:58:28.211Z,-2.20
2018-12-27T04:00:58.370Z,-2.30
2018-12-27T04:03:28.518Z,-2.40
2018-12-27T04:05:58.605Z,-2.50
2018-12-27T04:08:28.849Z,-2.40
2018-12-27T04:10:58.941Z,-2.30
2018-12-27T04:13:29.244Z,-2.20
2018-12-27T04:15:58.991Z,-2.10
2018-12-27T04:18:28.820Z,-2.10
2018-12-27T04:20:58.565Z,-2.00
2018-12-27T04:23:28.409Z,-2.00
2018-12-27T04:25:58.193Z,-2.20
2018-12-27T04:28:28.020Z,-2.10
2018-12-27T04:30:57.782Z,-2.10
2018-12-27T04:33:27.812Z,-2.20
2018-12-27T04:35:57.652Z,-2.10
2018-12-27T04:38:27.489Z,-2.10
2018-12-27T04:40:57.262Z,-2.20
2018-12-27T04:43:27.089Z,-2.20
2018-12-27T04:45:57.007Z,-2.30
2018-12-27T04:48:26.762Z,-2.30
2018-12-27T04:50:56.574Z,-2.20
2018-12-27T04:53:26.405Z,-2.20
2018-12-27T04:55:56.182Z,-2.20
2018-12-27T04:58:26.056Z,-2.10
2018-12-27T05:00:55.855Z,-2.10
2018-12-27T05:03:25.673Z,-2.40
2018-12-27T05:05:55.422Z,-2.40
2018-12-27T05:08:25.233Z,-2.40
2018-12-27T05:10:55.063Z,-2.10
2018-12-27T05:13:24.906Z,-2.20
2018-12-27T05:15:56.328Z,-2.40
2018-12-27T05:18:26.132Z,-2.50
2018-12-27T05:20:55.868Z,-2.60
2018-12-27T05:23:25.694Z,-2.60
2018-12-27T05:25:55.534Z,-2.30
2018-12-27T05:28:25.285Z,-2.30
2018-12-27T05:30:55.117Z,-2.50
2018-12-27T05:33:24.947Z,-2.30
2018-12-27T05:35:54.706Z,-2.40
2018-12-27T05:38:24.548Z,-2.50
2018-12-27T05:40:54.321Z,-2.30
2018-12-27T05:43:24.132Z,-2.30
2018-12-27T05:45:53.954Z,-2.30
2018-12-27T05:48:23.794Z,-2.30
2018-12-27T05:50:53.635Z,-2.20
2018-12-27T05:53:23.478Z,-2.10
2018-12-27T05:55:53.241Z,-2.10
2018-12-27T05:58:23.081Z,-2.30
2018-12-27T06:00:53.033Z,-2.30
2018-12-27T06:03:22.885Z,-2.40
2018-12-27T06:05:52.673Z,-2.40
2018-12-27T06:08:22.493Z,-2.40
2018-12-27T06:10:52.261Z,-2.30
2018-12-27T06:13:22.102Z,-2.60
2018-12-27T06:15:51.951Z,-2.40
2018-12-27T06:18:21.757Z,-2.70
2018-12-27T06:20:51.565Z,-2.60
2018-12-27T06:23:21.403Z,-2.60
2018-12-27T06:25:51.181Z,-2.50
2018-12-27T06:28:20.998Z,-2.50
2018-12-27T06:30:50.820Z,-2.70
2018-12-27T06:33:20.742Z,-2.70
2018-12-27T06:35:50.524Z,-2.60
2018-12-27T06:38:20.357Z,-2.50
2018-12-27T06:40:50.749Z,-2.70
2018-12-27T06:43:21.472Z,-2.60
2018-12-27T06:45:52.495Z,-2.50
2018-12-27T06:48:26.070Z,-2.50
2018-12-27T06:50:56.333Z,-2.30
2018-12-27T06:53:29.383Z,-2.50
2018-12-27T06:56:02.307Z,-2.50
2018-12-27T06:58:39.471Z,-2.60
2018-12-27T07:01:14.162Z,-2.50
2018-12-27T07:03:47.711Z,-2.70
2018-12-27T07:06:19.805Z,-2.50
2018-12-27T07:08:53.227Z,-2.60
2018-12-27T07:11:23.693Z,-2.60
2018-12-27T07:13:53.446Z,-2.60
2018-12-27T07:16:23.254Z,-2.70
2018-12-27T07:18:53.110Z,-2.60
2018-12-27T07:21:22.858Z,-2.50
2018-12-27T07:23:52.616Z,-2.40
2018-12-27T07:26:22.450Z,-2.50
2018-12-27T07:28:52.275Z,-2.30
2018-12-27T07:31:22.034Z,-2.40
2018-12-27T07:33:51.877Z,-2.50
2018-12-27T07:36:21.625Z,-2.50
2018-12-27T07:38:51.528Z,-2.40
2018-12-27T07:41:21.373Z,-2.50
2018-12-27T07:43:51.165Z,-2.40
2018-12-27T07:46:20.977Z,-2.40
2018-12-27T07:48:50.814Z,-2.20
2018-12-27T07:51:20.629Z,-2.40
2018-12-27T07:53:50.394Z,-2.50
2018-12-27T07:56:20.227Z,-2.60
2018-12-27T07:58:50.036Z,-2.70
2018-12-27T08:01:19.825Z,-2.70
2018-12-27T08:03:49.733Z,-2.90
2018-12-27T08:06:19.503Z,-2.60
2018-12-27T08:08:49.326Z,-2.40
2018-12-27T08:11:19.074Z,-2.30
2018-12-27T08:13:48.934Z,-2.50
2018-12-27T08:16:18.673Z,-2.50
2018-12-27T08:18:48.522Z,-2.40
2018-12-27T08:21:18.276Z,-2.30
2018-12-27T08:23:48.100Z,-2.30
2018-12-27T08:26:17.857Z,-2.30
2018-12-27T08:28:47.697Z,-2.30
2018-12-27T08:31:17.424Z,-2.20
2018-12-27T08:33:47.242Z,-2.10
2018-12-27T08:36:17.034Z,-2.50
2018-12-27T08:38:47.102Z,-2.40
2018-12-27T08:41:17.273Z,-2.40
2018-12-27T08:43:47.534Z,-2.30
2018-12-27T08:46:17.291Z,-2.20
2018-12-27T08:48:47.083Z,-2.40
2018-12-27T08:51:16.855Z,-2.50
2018-12-27T08:53:48.185Z,-2.50
2018-12-27T08:56:17.991Z,-2.60
2018-12-27T08:58:47.740Z,-2.20
2018-12-27T09:01:17.913Z,-2.40
2018-12-27T09:03:47.915Z,-2.40
2018-12-27T09:06:17.712Z,-2.10
2018-12-27T09:08:47.450Z,-2.40
2018-12-27T09:11:17.244Z,-2.20
2018-12-27T09:13:46.975Z,-2.30
2018-12-27T09:16:16.767Z,-2.20
2018-12-27T09:18:46.495Z,-2.10
2018-12-27T09:21:16.316Z,-2.00
2018-12-27T09:23:46.048Z,-2.00
2018-12-27T09:26:15.855Z,-2.00
2018-12-27T09:28:45.679Z,-2.10
2018-12-27T09:31:16.342Z,-2.20
2018-12-27T09:33:46.784Z,-2.20
2018-12-27T09:36:18.500Z,-2.20
2018-12-27T09:38:48.287Z,-2.00
2018-12-27T09:41:18.084Z,-2.00
2018-12-27T09:43:47.827Z,-1.80
2018-12-27T09:46:17.630Z,-2.10
2018-12-27T09:48:47.372Z,-2.00
2018-12-27T09:51:17.284Z,-1.80
2018-12-27T09:53:47.015Z,-1.70
2018-12-27T09:56:16.855Z,-1.80
2018-12-27T09:58:47.525Z,-1.90
2018-12-27T10:01:17.283Z,-2.00
2018-12-27T10:03:47.079Z,-2.10
2018-12-27T10:06:16.970Z,-2.10
2018-12-27T10:08:46.789Z,-2.00
2018-12-27T10:11:16.584Z,-2.00
2018-12-27T10:13:46.336Z,-1.80
2018-12-27T10:16:16.131Z,-1.90
2018-12-27T10:18:45.928Z,-2.00
2018-12-27T10:21:15.738Z,-1.90
2018-12-27T10:23:45.543Z,-1.90
2018-12-27T10:26:15.305Z,-1.70
2018-12-27T10:28:45.098Z,-1.60
2018-12-27T10:31:15.906Z,-1.80
2018-12-27T10:33:45.707Z,-1.80
2018-12-27T10:36:15.453Z,-1.70
2018-12-27T10:38:45.246Z,-1.70
2018-12-27T10:41:15.041Z,-1.50
2018-12-27T10:43:44.774Z,-1.50
2018-12-27T10:46:14.575Z,-1.40
2018-12-27T10:48:44.309Z,-1.50
2018-12-27T10:51:14.104Z,-1.40
2018-12-27T10:53:43.828Z,-1.20
2018-12-27T10:56:13.632Z,-1.40
2018-12-27T10:58:43.393Z,-1.30
2018-12-27T11:01:13.195Z,-1.40
2018-12-27T11:03:42.931Z,-1.50
2018-12-27T11:06:12.715Z,-1.10
2018-12-27T11:08:42.612Z,-1.10
2018-12-27T11:11:12.335Z,-0.90
2018-12-27T11:13:42.139Z,-1.00
2018-12-27T11:16:11.869Z,-1.00
2018-12-27T11:18:41.671Z,-1.40
2018-12-27T11:21:11.403Z,-1.40
2018-12-27T11:23:41.221Z,-1.40
2018-12-27T11:26:10.954Z,-1.30
2018-12-27T11:28:40.755Z,-1.10
2018-12-27T11:31:11.484Z,-1.10
2018-12-27T11:33:41.282Z,-1.20
2018-12-27T11:36:17.194Z,-1.20
2018-12-27T11:38:42.452Z,-1.20
2018-12-27T11:41:13.707Z,-1.10
2018-12-27T11:43:43.535Z,-0.90
2018-12-27T11:46:13.332Z,-1.00
2018-12-27T11:48:43.068Z,-0.90
2018-12-27T11:51:12.869Z,-0.80
2018-12-27T11:53:42.597Z,-0.70
2018-12-27T11:56:12.486Z,-0.60
2018-12-27T11:58:42.295Z,-0.50
2018-12-27T12:01:12.126Z,-0.50
2018-12-27T12:03:41.854Z,-0.40
2018-12-27T12:06:11.670Z,-0.40
2018-12-27T12:08:41.398Z,-0.40
2018-12-27T12:11:11.217Z,-0.40
2018-12-27T12:13:40.943Z,-0.30
2018-12-27T12:16:10.771Z,-0.40
2018-12-27T12:18:40.571Z,-0.60
2018-12-27T12:21:10.365Z,-0.60
2018-12-27T12:23:40.098Z,-0.50
2018-12-27T12:26:09.907Z,-0.70
2018-12-27T12:29:25.805Z,-0.70
2018-12-27T12:31:55.616Z,-0.50
2018-12-27T12:34:25.405Z,-0.50
2018-12-27T12:36:55.141Z,-0.30
2018-12-27T12:39:25.147Z,-0.30
2018-12-27T12:41:54.923Z,-0.40
2018-12-27T12:44:24.731Z,-0.40
2018-12-27T12:46:54.458Z,-0.40
2018-12-27T12:49:24.274Z,-0.50
2018-12-27T12:51:54.036Z,-0.40
2018-12-27T12:54:23.835Z,-0.40
2018-12-27T12:56:53.567Z,-0.50
2018-12-27T12:59:23.425Z,-0.40
2018-12-27T13:01:53.156Z,-0.30
2018-12-27T13:04:22.981Z,-0.40
2018-12-27T13:06:52.710Z,-0.30
2018-12-27T13:09:22.511Z,-0.20
2018-12-27T13:11:52.266Z,-0.20
2018-12-27T13:14:22.117Z,-0.20
2018-12-27T13:16:51.838Z,0.00
2018-12-27T13:19:21.642Z,-0.20
2018-12-27T13:21:51.380Z,-0.30
2018-12-27T13:24:21.182Z,-0.10
2018-12-27T13:26:51.015Z,-0.10
2018-12-27T13:29:20.809Z,-0.30
2018-12-27T13:31:50.548Z,-0.40
2018-12-27T13:34:20.351Z,-0.30
2018-12-27T13:36:50.087Z,-0.30
2018-12-27T13:39:19.899Z,-0.30
2018-12-27T13:41:49.635Z,-0.20
2018-12-27T13:44:19.366Z,-0.30
2018-12-27T13:46:50.301Z,-0.30
2018-12-27T13:49:20.112Z,-0.20
2018-12-27T13:51:49.854Z,-0.20
2018-12-27T13:54:19.643Z,-0.30
2018-12-27T13:56:49.383Z,-0.50
2018-12-27T13:59:19.182Z,-0.50
2018-12-27T14:01:48.933Z,-0.40
2018-12-27T14:04:18.760Z,-0.40
2018-12-27T14:06:48.496Z,-0.30
2018-12-27T14:09:18.328Z,-0.40
2018-12-27T14:11:48.067Z,-0.40
2018-12-27T14:14:18.007Z,-0.30
2018-12-27T14:16:47.912Z,-0.30
2018-12-27T14:19:17.646Z,-0.10
2018-12-27T14:21:47.450Z,-0.20
2018-12-27T14:24:17.186Z,-0.20
2018-12-27T14:26:46.990Z,-0.40
2018-12-27T14:29:16.798Z,-0.30
2018-12-27T14:31:46.591Z,-0.30
2018-12-27T14:34:16.407Z,-0.30
2018-12-27T14:36:46.145Z,-0.20
2018-12-27T14:39:15.966Z,-0.30
2018-12-27T14:41:45.794Z,-0.30
2018-12-27T14:44:15.529Z,-0.20
2018-12-27T14:46:45.343Z,-0.20
2018-12-27T14:49:15.088Z,-0.10
2018-12-27T14:51:44.886Z,-0.20
2018-12-27T14:54:14.622Z,-0.30
2018-12-27T14:56:44.429Z,-0.30
2018-12-27T14:59:14.266Z,-0.30
2018-12-27T15:01:44.103Z,-0.30
2018-12-27T15:04:13.838Z,-0.30
2018-12-27T15:06:47.214Z,-0.20
2018-12-27T15:09:15.083Z,-0.20
2018-12-27T15:11:44.841Z,-0.30
2018-12-27T15:14:14.646Z,-0.40
2018-12-27T15:16:45.079Z,-0.40
2018-12-27T15:19:15.014Z,-0.50
2018-12-27T15:21:44.818Z,-0.30
2018-12-27T15:24:14.554Z,-0.40
2018-12-27T15:26:44.366Z,-0.40
2018-12-27T15:29:14.107Z,-0.50
2018-12-27T15:31:44.367Z,-0.40
2018-12-27T15:34:14.174Z,-0.30
2018-12-27T15:36:43.998Z,-0.30
2018-12-27T15:39:13.814Z,-0.60
2018-12-27T15:41:43.594Z,-0.40
2018-12-27T15:44:13.391Z,-0.50
2018-12-27T15:46:43.127Z,-0.50
2018-12-27T15:49:12.947Z,-0.50
2018-12-27T15:51:42.688Z,-0.40
2018-12-27T15:54:12.483Z,-0.40
2018-12-27T15:56:42.221Z,-0.40
2018-12-27T15:59:12.155Z,-0.60
2018-12-27T16:01:41.887Z,-0.50
2018-12-27T16:04:11.707Z,-0.50
2018-12-27T16:06:42.629Z,-0.50
2018-12-27T16:09:12.438Z,-0.50
2018-12-27T16:11:42.176Z,-0.50
2018-12-27T16:14:12.003Z,-0.40
2018-12-27T16:16:42.303Z,-0.40
2018-12-27T16:19:12.464Z,-0.50
2018-12-27T16:21:42.259Z,-0.60
2018-12-27T16:24:12.182Z,-0.60
2018-12-27T16:26:41.920Z,-0.60
2018-12-27T16:29:11.731Z,-0.60
2018-12-27T16:31:42.512Z,-0.70
2018-12-27T16:34:15.927Z,-0.60
2018-12-27T16:36:49.774Z,-0.70
2018-12-27T16:39:19.637Z,-0.60
2018-12-27T16:41:50.728Z,-0.60
2018-12-27T16:44:20.567Z,-0.50
2018-12-27T16:46:50.305Z,-0.50
2018-12-27T16:49:20.118Z,-0.50
2018-12-27T16:51:50.535Z,-0.50
2018-12-27T16:54:20.581Z,-0.50
2018-12-27T16:56:50.319Z,-0.50
2018-12-27T16:59:20.199Z,-0.70
2018-12-27T17:01:50.003Z,-0.60
2018-12-27T17:04:19.815Z,-0.70
2018-12-27T17:06:49.618Z,-0.70
2018-12-27T17:09:19.354Z,-0.60
2018-12-27T17:11:49.158Z,-0.60
2018-12-27T17:14:18.896Z,-0.60
2018-12-27T17:16:48.710Z,-0.60
2018-12-27T17:19:18.460Z,-0.60
2018-12-27T17:21:48.317Z,-0.60
2018-12-27T17:24:18.058Z,-0.70
2018-12-27T17:26:47.855Z,-0.50
2018-12-27T17:29:17.604Z,-0.50
2018-12-27T17:31:47.407Z,-0.40
2018-12-27T17:34:17.207Z,-0.40
2018-12-27T17:36:47.025Z,-0.50
2018-12-27T17:39:16.785Z,-0.40
2018-12-27T17:41:48.166Z,-0.70
2018-12-27T17:44:17.945Z,-0.60
2018-12-27T17:46:47.779Z,-0.60
2018-12-27T17:49:17.598Z,-0.50
2018-12-27T17:51:47.428Z,-0.50
2018-12-27T17:54:17.283Z,-0.40
2018-12-27T17:56:47.111Z,-0.40
2018-12-27T17:59:16.903Z,-0.50
2018-12-27T18:01:46.743Z,-0.40
2018-12-27T18:04:16.575Z,-0.50
2018-12-27T18:06:46.334Z,-0.60
2018-12-27T18:09:16.339Z,-0.50
2018-12-27T18:11:47.750Z,-0.70
2018-12-27T18:14:18.067Z,-0.60
2018-12-27T18:16:47.818Z,-0.60
2018-12-27T18:19:17.677Z,-0.50
2018-12-27T18:21:47.557Z,-0.50
2018-12-27T18:24:17.395Z,-0.50
2018-12-27T18:26:47.236Z,-0.50
2018-12-27T18:29:17.078Z,-0.50
2018-12-27T18:31:46.919Z,-0.40
2018-12-27T18:34:16.670Z,-0.50
2018-12-27T18:36:46.499Z,-0.50
2018-12-27T18:39:16.594Z,-0.40
2018-12-27T18:41:46.351Z,-0.40
2018-12-27T18:44:16.197Z,-0.30
2018-12-27T18:46:46.045Z,-0.30
2018-12-27T18:49:20.604Z,-0.40
2018-12-27T18:51:49.176Z,-0.40
2018-12-27T18:54:19.078Z,-0.50
2018-12-27T18:56:53.863Z,-0.30
2018-12-27T18:59:24.441Z,-0.30
2018-12-27T19:01:54.194Z,-0.30
2018-12-27T19:04:23.959Z,-0.30
2018-12-27T19:06:55.055Z,-0.20
2018-12-27T19:09:24.893Z,-0.30
2018-12-27T19:12:30.777Z,-0.30
2018-12-27T19:15:02.199Z,-0.30
2018-12-27T19:17:35.382Z,-0.40
2018-12-27T19:20:08.190Z,-0.40
2018-12-27T19:22:41.006Z,-0.50
2018-12-27T19:25:10.824Z,-0.50
2018-12-27T19:27:40.575Z,-0.60
2018-12-27T19:30:10.414Z,-0.60
2018-12-27T19:32:40.334Z,-0.60
2018-12-27T19:35:10.108Z,-0.60
2018-12-27T19:37:39.937Z,-0.60
2018-12-27T19:40:09.690Z,-0.70
2018-12-27T19:42:39.598Z,-0.70
2018-12-27T19:45:09.352Z,-0.60
2018-12-27T19:47:39.136Z,-0.60
2018-12-27T19:50:09.269Z,-0.60
2018-12-27T19:52:39.033Z,-0.60
2018-12-27T19:55:08.954Z,-0.50
2018-12-27T19:57:38.711Z,-0.50
2018-12-27T20:00:09.952Z,-0.60
2018-12-27T20:02:40.067Z,-0.50
2018-12-27T20:05:09.898Z,-0.40
2018-12-27T20:07:39.751Z,-0.50
2018-12-27T20:10:10.228Z,-0.50
2018-12-27T20:12:40.234Z,-0.50
2018-12-27T20:15:09.992Z,-0.50
2018-12-27T20:17:39.821Z,-0.60
2018-12-27T20:20:09.641Z,-0.50
2018-12-27T20:22:39.908Z,-0.40
2018-12-27T20:25:09.859Z,-0.40
2018-12-27T20:27:39.686Z,-0.50
2018-12-27T20:30:09.622Z,-0.50
2018-12-27T20:32:39.486Z,-0.40
2018-12-27T20:35:09.462Z,-0.60
2018-12-27T20:37:39.375Z,-0.50
2018-12-27T20:40:09.351Z,-0.30
2018-12-27T20:42:39.178Z,-0.50
2018-12-27T20:45:09.073Z,-0.50
2018-12-27T20:47:38.894Z,-0.60
2018-12-27T20:50:08.722Z,-0.50
2018-12-27T20:52:38.552Z,-0.50
2018-12-27T20:55:08.303Z,-0.50
2018-12-27T20:57:38.137Z,-0.50
2018-12-27T21:00:08.150Z,-0.50
2018-12-27T21:02:37.985Z,-0.40
2018-12-27T21:05:07.739Z,-0.40
2018-12-27T21:07:37.664Z,-0.50
2018-12-27T21:10:08.023Z,-0.50
2018-12-27T21:12:38.345Z,-0.50
2018-12-27T21:15:08.110Z,-0.50
2018-12-27T21:17:37.938Z,-0.40
2018-12-27T21:20:07.866Z,-0.50
2018-12-27T21:22:37.691Z,-0.50
2018-12-27T21:25:07.443Z,-0.50
2018-12-27T21:27:37.266Z,-0.40
2018-12-27T21:30:08.615Z,-0.40
2018-12-27T21:32:38.444Z,-0.40
2018-12-27T21:35:08.293Z,-0.50
2018-12-27T21:37:38.122Z,-0.50
2018-12-27T21:40:07.936Z,-0.50
2018-12-27T21:42:37.770Z,-0.50
2018-12-27T21:45:07.587Z,-0.40
2018-12-27T21:47:38.413Z,-0.40
2018-12-27T21:50:08.850Z,-0.30
2018-12-27T21:52:38.671Z,-0.40
2018-12-27T21:55:08.502Z,-0.40
2018-12-27T21:57:38.342Z,-0.40
2018-12-27T22:00:11.151Z,-0.40
2018-12-27T22:02:41.093Z,-0.40
2018-12-27T22:05:10.851Z,-0.30
2018-12-27T22:07:40.687Z,-0.40
2018-12-27T22:10:10.736Z,-0.50
2018-12-27T22:12:42.139Z,-0.50
2018-12-27T22:15:12.118Z,-0.60
2018-12-27T22:17:41.971Z,-0.50
2018-12-27T22:20:11.833Z,-0.50
2018-12-27T22:22:41.667Z,-0.50
2018-12-27T22:25:11.420Z,-0.30
2018-12-27T22:27:41.252Z,-0.40
2018-12-27T22:30:11.085Z,-0.40
2018-12-27T22:32:40.844Z,-0.50
2018-12-27T22:35:10.684Z,-0.50
2018-12-27T22:37:40.441Z,-0.40
2018-12-27T22:40:10.386Z,-0.40
2018-12-27T22:42:40.235Z,-0.60
2018-12-27T22:45:10.097Z,-0.60
2018-12-27T22:47:39.961Z,-0.80
2018-12-27T22:50:09.727Z,-0.70
2018-12-27T22:52:39.550Z,-0.60
2018-12-27T22:55:09.391Z,-0.50
2018-12-27T22:57:39.171Z,-0.60
2018-12-27T23:00:16.397Z,-0.70
2018-12-27T23:02:46.370Z,-0.60
2018-12-27T23:05:16.228Z,-0.60
2018-12-27T23:07:45.974Z,-0.60
2018-12-27T23:10:15.810Z,-0.50
2018-12-27T23:12:45.651Z,-0.60
2018-12-27T23:15:15.403Z,-0.60
2018-12-27T23:17:46.654Z,-0.60
2018-12-27T23:20:16.414Z,-0.70
2018-12-27T23:22:46.256Z,-0.50
2018-12-27T23:25:16.137Z,-0.70
2018-12-27T23:27:46.014Z,-0.60
2018-12-27T23:30:15.765Z,-0.50
2018-12-27T23:32:45.698Z,-0.50
2018-12-27T23:35:15.458Z,-0.60
2018-12-27T23:37:45.286Z,-0.60
2018-12-27T23:40:15.039Z,-0.60
2018-12-27T23:42:44.868Z,-0.70
2018-12-27T23:45:14.703Z,-0.70
2018-12-27T23:47:44.570Z,-0.70
2018-12-27T23:50:14.454Z,-0.70
2018-12-27T23:52:45.480Z,-0.70
2018-12-27T23:55:15.332Z,-0.70
2018-12-27T23:57:45.160Z,-0.60
